createdAt,value
2023-02-18T00:00:05.724Z,1015.37
2023-02-18T00:01:05.687Z,1015.30
2023-02-18T00:02:05.670Z,1015.27
2023-02-18T00:03:05.609Z,1015.24
2023-02-18T00:04:05.578Z,1015.31
2023-02-18T00:05:05.539Z,1015.23
2023-02-18T00:06:05.754Z,1015.32
2023-02-18T00:07:05.464Z,1015.23
2023-02-18T00:08:05.428Z,1015.25
2023-02-18T00:09:05.420Z,1015.26
2023-02-18T00:10:05.365Z,1015.24
2023-02-18T00:11:05.324Z,1015.24
2023-02-18T00:12:05.287Z,1015.23
2023-02-18T00:13:05.265Z,1015.33
2023-02-18T00:14:05.214Z,1015.30
2023-02-18T00:15:05.181Z,1015.21
2023-02-18T00:16:05.272Z,1015.24
2023-02-18T00:17:05.107Z,1015.22
2023-02-18T00:18:05.075Z,1015.27
2023-02-18T00:19:05.040Z,1015.22
2023-02-18T00:20:05.006Z,1015.20
2023-02-18T00:21:04.975Z,1015.25
2023-02-18T00:22:04.948Z,1015.17
2023-02-18T00:23:04.905Z,1015.18
2023-02-18T00:24:04.866Z,1015.15
2023-02-18T00:25:04.833Z,1015.16
2023-02-18T00:26:04.816Z,1015.13
2023-02-18T00:27:04.754Z,1015.19
2023-02-18T00:28:04.720Z,1015.19
2023-02-18T00:29:04.703Z,1015.22
2023-02-18T00:30:04.660Z,1015.31
2023-02-18T00:31:04.712Z,1015.26
2023-02-18T00:32:04.616Z,1015.29
2023-02-18T00:33:04.537Z,1015.26
2023-02-18T00:34:04.506Z,1015.25
2023-02-18T00:35:04.469Z,1015.14
2023-02-18T00:36:04.432Z,1015.13
2023-02-18T00:37:04.404Z,1015.05
2023-02-18T00:38:04.373Z,1015.01
2023-02-18T00:39:04.357Z,1014.98
2023-02-18T00:40:04.298Z,1014.93
2023-02-18T00:41:04.264Z,1014.90
2023-02-18T00:42:04.225Z,1014.89
2023-02-18T00:43:04.186Z,1014.87
2023-02-18T00:44:04.149Z,1014.84
2023-02-18T00:45:04.114Z,1014.89
2023-02-18T00:46:04.109Z,1014.91
2023-02-18T00:47:04.049Z,1014.84
2023-02-18T00:48:04.010Z,1014.90
2023-02-18T00:49:03.972Z,1014.83
2023-02-18T00:50:03.941Z,1014.83
2023-02-18T00:51:03.900Z,1014.85
2023-02-18T00:52:03.875Z,1014.85
2023-02-18T00:53:03.829Z,1014.87
2023-02-18T00:54:03.819Z,1014.79
2023-02-18T00:55:03.770Z,1014.77
2023-02-18T00:56:03.732Z,1014.77
2023-02-18T00:57:03.689Z,1014.72
2023-02-18T00:58:03.655Z,1014.71
2023-02-18T00:59:03.628Z,1014.78
2023-02-18T01:00:03.578Z,1014.76
2023-02-18T01:01:04.209Z,1014.72
2023-02-18T01:02:03.510Z,1014.67
2023-02-18T01:03:03.483Z,1014.65
2023-02-18T01:04:03.440Z,1014.73
2023-02-18T01:05:03.445Z,1014.72
2023-02-18T01:06:03.366Z,1014.75
2023-02-18T01:07:03.333Z,1014.79
2023-02-18T01:08:03.308Z,1014.77
2023-02-18T01:09:03.264Z,1014.82
2023-02-18T01:10:03.358Z,1014.80
2023-02-18T01:11:03.193Z,1014.70
2023-02-18T01:12:03.158Z,1014.76
2023-02-18T01:13:03.117Z,1014.67
2023-02-18T01:14:03.086Z,1014.60
2023-02-18T01:15:03.052Z,1014.69
2023-02-18T01:16:03.077Z,1014.56
2023-02-18T01:17:03.006Z,1014.62
2023-02-18T01:18:02.940Z,1014.62
2023-02-18T01:19:02.905Z,1014.54
2023-02-18T01:20:02.882Z,1014.58
2023-02-18T01:21:02.842Z,1014.54
2023-02-18T01:22:02.810Z,1014.57
2023-02-18T01:23:02.775Z,1014.63
2023-02-18T01:24:02.728Z,1014.70
2023-02-18T01:25:02.707Z,1014.76
2023-02-18T01:26:02.662Z,1014.73
2023-02-18T01:27:02.630Z,1014.68
2023-02-18T01:28:02.594Z,1014.63
2023-02-18T01:29:02.547Z,1014.57
2023-02-18T01:30:02.529Z,1014.52
2023-02-18T01:31:02.597Z,1014.51
2023-02-18T01:32:02.660Z,1014.47
2023-02-18T01:33:02.404Z,1014.49
2023-02-18T01:34:02.380Z,1014.46
2023-02-18T01:35:02.338Z,1014.43
2023-02-18T01:36:02.302Z,1014.41
2023-02-18T01:37:02.268Z,1014.41
2023-02-18T01:38:02.229Z,1014.41
2023-02-18T01:39:02.196Z,1014.46
2023-02-18T01:40:02.166Z,1014.44
2023-02-18T01:41:02.115Z,1014.46
2023-02-18T01:42:02.092Z,1014.42
2023-02-18T01:43:02.072Z,1014.47
2023-02-18T01:44:02.019Z,1014.42
2023-02-18T01:45:01.978Z,1014.42
2023-02-18T01:46:01.944Z,1014.40
2023-02-18T01:47:01.904Z,1014.42
2023-02-18T01:48:01.865Z,1014.38
2023-02-18T01:49:01.836Z,1014.32
2023-02-18T01:50:01.792Z,1014.29
2023-02-18T01:51:01.762Z,1014.27
2023-02-18T01:52:01.725Z,1014.27
2023-02-18T01:53:01.689Z,1014.27
2023-02-18T01:54:01.658Z,1014.24
2023-02-18T01:55:01.617Z,1014.25
2023-02-18T01:56:01.582Z,1014.21
2023-02-18T01:57:01.559Z,1014.21
2023-02-18T01:58:01.529Z,1014.22
2023-02-18T01:59:01.479Z,1014.24
2023-02-18T02:00:01.431Z,1014.19
2023-02-18T02:01:01.425Z,1014.20
2023-02-18T02:02:01.411Z,1014.24
2023-02-18T02:03:01.349Z,1014.21
2023-02-18T02:04:01.297Z,1014.16
2023-02-18T02:05:01.251Z,1014.13
2023-02-18T02:06:01.215Z,1014.15
2023-02-18T02:07:01.191Z,1014.11
2023-02-18T02:08:01.156Z,1014.05
2023-02-18T02:09:01.112Z,1014.00
2023-02-18T02:10:01.079Z,1014.01
2023-02-18T02:11:01.046Z,1014.02
2023-02-18T02:12:01.007Z,1014.05
2023-02-18T02:13:00.968Z,1014.02
2023-02-18T02:14:00.944Z,1014.02
2023-02-18T02:15:00.900Z,1014.02
2023-02-18T02:16:00.886Z,1013.99
2023-02-18T02:17:00.822Z,1013.96
2023-02-18T02:18:00.793Z,1013.97
2023-02-18T02:19:00.751Z,1013.95
2023-02-18T02:20:00.732Z,1013.91
2023-02-18T02:21:00.680Z,1013.91
2023-02-18T02:22:00.644Z,1013.92
2023-02-18T02:23:00.623Z,1013.87
2023-02-18T02:24:00.583Z,1013.85
2023-02-18T02:25:00.538Z,1013.88
2023-02-18T02:26:00.531Z,1013.86
2023-02-18T02:27:00.481Z,1013.90
2023-02-18T02:28:00.437Z,1013.90
2023-02-18T02:29:00.394Z,1013.95
2023-02-18T02:30:00.391Z,1013.98
2023-02-18T02:31:00.352Z,1013.86
2023-02-18T02:32:00.336Z,1013.91
2023-02-18T02:33:00.251Z,1013.94
2023-02-18T02:34:00.215Z,1013.89
2023-02-18T02:35:00.186Z,1013.89
2023-02-18T02:36:00.160Z,1013.92
2023-02-18T02:37:00.116Z,1013.91
2023-02-18T02:38:00.098Z,1013.90
2023-02-18T02:39:00.044Z,1013.85
2023-02-18T02:40:00.005Z,1013.91
2023-02-18T02:40:59.989Z,1013.82
2023-02-18T02:41:59.930Z,1013.85
2023-02-18T02:42:59.896Z,1013.90
2023-02-18T02:43:59.860Z,1013.87
2023-02-18T02:44:59.831Z,1013.81
2023-02-18T02:45:59.885Z,1013.81
2023-02-18T02:46:59.762Z,1013.89
2023-02-18T02:47:59.728Z,1013.83
2023-02-18T02:48:59.684Z,1013.87
2023-02-18T02:49:59.649Z,1013.80
2023-02-18T02:50:59.621Z,1013.79
2023-02-18T02:51:59.607Z,1013.74
2023-02-18T02:52:59.546Z,1013.76
2023-02-18T02:53:59.514Z,1013.78
2023-02-18T02:54:59.530Z,1013.69
2023-02-18T02:55:59.434Z,1013.70
2023-02-18T02:56:59.399Z,1013.66
2023-02-18T02:57:59.367Z,1013.69
2023-02-18T02:58:59.331Z,1013.72
2023-02-18T02:59:59.294Z,1013.68
2023-02-18T03:00:59.270Z,1013.66
2023-02-18T03:01:59.242Z,1013.68
2023-02-18T03:02:59.298Z,1013.61
2023-02-18T03:03:59.150Z,1013.60
2023-02-18T03:04:59.116Z,1013.58
2023-02-18T03:05:59.081Z,1013.54
2023-02-18T03:06:59.049Z,1013.54
2023-02-18T03:07:59.006Z,1013.43
2023-02-18T03:08:58.976Z,1013.44
2023-02-18T03:09:58.936Z,1013.44
2023-02-18T03:10:58.903Z,1013.43
2023-02-18T03:11:58.863Z,1013.46
2023-02-18T03:12:58.829Z,1013.45
2023-02-18T03:13:58.815Z,1013.40
2023-02-18T03:14:58.761Z,1013.38
2023-02-18T03:15:58.721Z,1013.39
2023-02-18T03:16:58.725Z,1013.35
2023-02-18T03:17:58.657Z,1013.30
2023-02-18T03:18:58.617Z,1013.31
2023-02-18T03:19:58.583Z,1013.29
2023-02-18T03:20:58.544Z,1013.26
2023-02-18T03:21:58.509Z,1013.25
2023-02-18T03:22:58.487Z,1013.24
2023-02-18T03:23:58.448Z,1013.28
2023-02-18T03:24:58.405Z,1013.29
2023-02-18T03:25:58.366Z,1013.31
2023-02-18T03:26:58.340Z,1013.25
2023-02-18T03:27:58.303Z,1013.26
2023-02-18T03:28:58.264Z,1013.26
2023-02-18T03:29:58.258Z,1013.28
2023-02-18T03:30:58.197Z,1013.27
2023-02-18T03:31:58.285Z,1013.15
2023-02-18T03:32:58.127Z,1013.15
2023-02-18T03:33:58.138Z,1013.11
2023-02-18T03:34:58.049Z,1013.10
2023-02-18T03:35:58.017Z,1013.07
2023-02-18T03:36:57.983Z,1013.12
2023-02-18T03:37:57.956Z,1013.17
2023-02-18T03:38:57.941Z,1013.15
2023-02-18T03:39:57.868Z,1013.11
2023-02-18T03:40:57.839Z,1013.08
2023-02-18T03:41:57.812Z,1013.14
2023-02-18T03:42:57.772Z,1013.22
2023-02-18T03:43:57.753Z,1013.17
2023-02-18T03:44:57.695Z,1013.15
2023-02-18T03:45:57.667Z,1013.13
2023-02-18T03:46:57.622Z,1013.13
2023-02-18T03:47:57.590Z,1013.12
2023-02-18T03:48:57.556Z,1013.08
2023-02-18T03:49:57.519Z,1013.13
2023-02-18T03:50:57.483Z,1013.14
2023-02-18T03:51:57.455Z,1013.16
2023-02-18T03:52:57.414Z,1013.09
2023-02-18T03:53:57.374Z,1013.08
2023-02-18T03:54:57.338Z,1013.13
2023-02-18T03:55:57.311Z,1013.07
2023-02-18T03:56:57.264Z,1013.08
2023-02-18T03:57:57.222Z,1013.03
2023-02-18T03:58:57.190Z,1013.11
2023-02-18T03:59:57.172Z,1013.12
2023-02-18T04:00:57.168Z,1013.03
2023-02-18T04:01:57.106Z,1013.03
2023-02-18T04:02:57.051Z,1013.06
2023-02-18T04:03:57.083Z,1013.03
2023-02-18T04:04:56.976Z,1013.01
2023-02-18T04:05:56.946Z,1013.01
2023-02-18T04:06:56.916Z,1013.04
2023-02-18T04:07:56.870Z,1013.02
2023-02-18T04:08:56.838Z,1013.01
2023-02-18T04:09:56.794Z,1012.95
2023-02-18T04:10:56.767Z,1013.00
2023-02-18T04:11:56.721Z,1012.94
2023-02-18T04:12:56.689Z,1012.93
2023-02-18T04:13:56.704Z,1012.93
2023-02-18T04:14:56.617Z,1012.82
2023-02-18T04:15:56.587Z,1012.89
2023-02-18T04:16:56.561Z,1012.86
2023-02-18T04:17:56.514Z,1012.87
2023-02-18T04:18:56.472Z,1012.77
2023-02-18T04:19:56.442Z,1012.79
2023-02-18T04:20:56.404Z,1012.80
2023-02-18T04:21:56.443Z,1012.83
2023-02-18T04:22:56.331Z,1012.79
2023-02-18T04:23:56.313Z,1012.74
2023-02-18T04:24:56.317Z,1012.72
2023-02-18T04:25:56.234Z,1012.78
2023-02-18T04:26:56.203Z,1012.77
2023-02-18T04:27:56.155Z,1012.81
2023-02-18T04:28:56.115Z,1012.82
2023-02-18T04:29:56.080Z,1012.80
2023-02-18T04:30:56.066Z,1012.75
2023-02-18T04:31:56.027Z,1012.76
2023-02-18T04:32:55.975Z,1012.79
2023-02-18T04:33:55.936Z,1012.80
2023-02-18T04:34:55.905Z,1012.83
2023-02-18T04:35:55.867Z,1012.78
2023-02-18T04:36:55.856Z,1012.81
2023-02-18T04:37:55.797Z,1012.85
2023-02-18T04:38:55.761Z,1012.86
2023-02-18T04:39:55.730Z,1012.90
2023-02-18T04:40:55.688Z,1012.90
2023-02-18T04:41:55.656Z,1012.81
2023-02-18T04:42:55.622Z,1012.81
2023-02-18T04:43:55.654Z,1012.79
2023-02-18T04:44:55.547Z,1012.78
2023-02-18T04:45:55.552Z,1012.77
2023-02-18T04:46:55.475Z,1012.69
2023-02-18T04:47:55.435Z,1012.71
2023-02-18T04:48:55.404Z,1012.81
2023-02-18T04:49:55.367Z,1012.67
2023-02-18T04:50:55.329Z,1012.71
2023-02-18T04:51:55.302Z,1012.70
2023-02-18T04:52:55.264Z,1012.70
2023-02-18T04:53:55.230Z,1012.67
2023-02-18T04:54:55.189Z,1012.72
2023-02-18T04:55:55.148Z,1012.67
2023-02-18T04:56:55.114Z,1012.68
2023-02-18T04:57:55.080Z,1012.67
2023-02-18T04:58:55.041Z,1012.63
2023-02-18T04:59:55.011Z,1012.65
2023-02-18T05:00:54.975Z,1012.61
2023-02-18T05:01:54.946Z,1012.67
2023-02-18T05:02:54.911Z,1012.56
2023-02-18T05:03:54.885Z,1012.58
2023-02-18T05:04:54.833Z,1012.55
2023-02-18T05:05:54.825Z,1012.54
2023-02-18T05:06:54.768Z,1012.54
2023-02-18T05:07:54.726Z,1012.55
2023-02-18T05:08:54.691Z,1012.54
2023-02-18T05:09:54.657Z,1012.57
2023-02-18T05:10:54.634Z,1012.53
2023-02-18T05:11:54.585Z,1012.50
2023-02-18T05:12:54.563Z,1012.53
2023-02-18T05:13:54.512Z,1012.61
2023-02-18T05:14:54.476Z,1012.53
2023-02-18T05:15:54.532Z,1012.49
2023-02-18T05:16:54.423Z,1012.42
2023-02-18T05:17:54.367Z,1012.45
2023-02-18T05:18:54.332Z,1012.45
2023-02-18T05:19:54.300Z,1012.43
2023-02-18T05:20:54.267Z,1012.49
2023-02-18T05:21:54.236Z,1012.51
2023-02-18T05:22:54.191Z,1012.52
2023-02-18T05:23:54.156Z,1012.47
2023-02-18T05:24:54.122Z,1012.46
2023-02-18T05:25:54.101Z,1012.44
2023-02-18T05:26:54.050Z,1012.45
2023-02-18T05:27:54.015Z,1012.43
2023-02-18T05:28:53.976Z,1012.41
2023-02-18T05:29:53.941Z,1012.50
2023-02-18T05:30:53.968Z,1012.46
2023-02-18T05:31:53.993Z,1012.39
2023-02-18T05:32:53.837Z,1012.38
2023-02-18T05:33:53.796Z,1012.36
2023-02-18T05:34:53.758Z,1012.49
2023-02-18T05:35:53.724Z,1012.46
2023-02-18T05:36:53.694Z,1012.48
2023-02-18T05:37:53.653Z,1012.41
2023-02-18T05:38:53.629Z,1012.41
2023-02-18T05:39:53.581Z,1012.39
2023-02-18T05:40:53.543Z,1012.38
2023-02-18T05:41:53.510Z,1012.41
2023-02-18T05:42:53.471Z,1012.34
2023-02-18T05:43:53.431Z,1012.37
2023-02-18T05:44:53.402Z,1012.36
2023-02-18T05:45:53.376Z,1012.36
2023-02-18T05:46:53.325Z,1012.32
2023-02-18T05:47:53.297Z,1012.27
2023-02-18T05:48:53.257Z,1012.45
2023-02-18T05:49:53.218Z,1012.21
2023-02-18T05:50:53.190Z,1012.25
2023-02-18T05:51:53.163Z,1012.37
2023-02-18T05:52:53.113Z,1012.27
2023-02-18T05:53:53.083Z,1012.42
2023-02-18T05:54:53.037Z,1012.22
2023-02-18T05:55:53.006Z,1012.26
2023-02-18T05:56:52.965Z,1012.25
2023-02-18T05:57:52.937Z,1012.20
2023-02-18T05:58:52.896Z,1012.19
2023-02-18T05:59:52.863Z,1012.18
2023-02-18T06:00:52.818Z,1012.13
2023-02-18T06:01:52.784Z,1012.15
2023-02-18T06:02:52.784Z,1012.16
2023-02-18T06:03:52.718Z,1012.11
2023-02-18T06:04:52.685Z,1012.07
2023-02-18T06:05:52.791Z,1012.06
2023-02-18T06:06:52.605Z,1012.07
2023-02-18T06:07:53.463Z,1012.07
2023-02-18T06:08:52.537Z,1012.05
2023-02-18T06:09:52.498Z,1012.00
2023-02-18T06:10:52.464Z,1012.02
2023-02-18T06:11:52.433Z,1011.98
2023-02-18T06:12:52.389Z,1011.92
2023-02-18T06:13:52.361Z,1011.89
2023-02-18T06:14:52.323Z,1011.94
2023-02-18T06:15:52.344Z,1011.90
2023-02-18T06:16:52.250Z,1011.90
2023-02-18T06:17:52.218Z,1011.87
2023-02-18T06:18:52.174Z,1011.87
2023-02-18T06:19:52.154Z,1011.86
2023-02-18T06:20:52.111Z,1011.89
2023-02-18T06:21:52.074Z,1011.84
2023-02-18T06:22:52.043Z,1011.75
2023-02-18T06:23:51.998Z,1011.81
2023-02-18T06:24:51.974Z,1011.82
2023-02-18T06:25:51.934Z,1011.90
2023-02-18T06:26:51.888Z,1011.86
2023-02-18T06:27:51.852Z,1011.82
2023-02-18T06:28:51.815Z,1011.85
2023-02-18T06:29:51.780Z,1011.85
2023-02-18T06:30:51.742Z,1011.72
2023-02-18T06:31:51.753Z,1011.81
2023-02-18T06:32:51.671Z,1011.82
2023-02-18T06:33:51.640Z,1011.81
2023-02-18T06:34:51.601Z,1011.77
2023-02-18T06:35:51.563Z,1011.85
2023-02-18T06:36:51.525Z,1011.82
2023-02-18T06:37:51.492Z,1011.80
2023-02-18T06:38:51.457Z,1011.89
2023-02-18T06:39:51.417Z,1011.83
2023-02-18T06:40:51.379Z,1011.87
2023-02-18T06:41:51.348Z,1011.88
2023-02-18T06:42:51.309Z,1011.96
2023-02-18T06:43:51.276Z,1011.93
2023-02-18T06:44:51.237Z,1011.88
2023-02-18T06:45:51.202Z,1011.96
2023-02-18T06:46:51.168Z,1011.89
2023-02-18T06:47:51.161Z,1011.92
2023-02-18T06:48:51.103Z,1011.89
2023-02-18T06:49:51.061Z,1011.90
2023-02-18T06:50:51.032Z,1011.88
2023-02-18T06:51:50.987Z,1011.86
2023-02-18T06:52:50.950Z,1011.84
2023-02-18T06:53:50.913Z,1011.84
2023-02-18T06:54:50.881Z,1011.78
2023-02-18T06:55:50.846Z,1011.69
2023-02-18T06:56:50.835Z,1011.75
2023-02-18T06:57:50.770Z,1011.82
2023-02-18T06:58:50.736Z,1011.75
2023-02-18T06:59:50.703Z,1011.81
2023-02-18T07:00:50.699Z,1011.77
2023-02-18T07:01:50.630Z,1011.67
2023-02-18T07:02:50.593Z,1011.77
2023-02-18T07:03:50.621Z,1011.76
2023-02-18T07:04:50.526Z,1011.84
2023-02-18T07:05:50.489Z,1011.82
2023-02-18T07:06:50.456Z,1011.93
2023-02-18T07:07:50.421Z,1011.89
2023-02-18T07:08:50.379Z,1011.92
2023-02-18T07:09:50.338Z,1011.85
2023-02-18T07:10:50.310Z,1011.91
2023-02-18T07:11:50.265Z,1011.82
2023-02-18T07:12:50.231Z,1011.92
2023-02-18T07:13:50.204Z,1011.92
2023-02-18T07:14:50.158Z,1011.98
2023-02-18T07:15:50.136Z,1011.98
2023-02-18T07:16:50.091Z,1011.99
2023-02-18T07:17:50.059Z,1011.96
2023-02-18T07:18:50.024Z,1011.97
2023-02-18T07:19:50.025Z,1012.08
2023-02-18T07:20:49.945Z,1012.02
2023-02-18T07:21:49.917Z,1012.06
2023-02-18T07:22:49.877Z,1012.04
2023-02-18T07:23:49.838Z,1012.05
2023-02-18T07:24:49.831Z,1012.04
2023-02-18T07:25:49.770Z,1012.10
2023-02-18T07:26:49.729Z,1012.13
2023-02-18T07:27:49.701Z,1012.13
2023-02-18T07:28:49.659Z,1012.12
2023-02-18T07:29:49.625Z,1012.09
2023-02-18T07:30:49.589Z,1012.13
2023-02-18T07:31:49.764Z,1012.11
2023-02-18T07:32:49.513Z,1012.13
2023-02-18T07:33:49.484Z,1012.17
2023-02-18T07:34:49.454Z,1012.14
2023-02-18T07:35:49.408Z,1012.20
2023-02-18T07:36:49.376Z,1012.25
2023-02-18T07:37:49.338Z,1012.17
2023-02-18T07:38:49.324Z,1012.24
2023-02-18T07:39:49.264Z,1012.12
2023-02-18T07:40:49.227Z,1012.09
2023-02-18T07:41:49.197Z,1012.08
2023-02-18T07:42:49.177Z,1012.12
2023-02-18T07:43:49.125Z,1012.08
2023-02-18T07:44:49.093Z,1012.08
2023-02-18T07:45:49.152Z,1012.09
2023-02-18T07:46:49.021Z,1012.04
2023-02-18T07:47:48.985Z,1012.16
2023-02-18T07:48:48.948Z,1012.10
2023-02-18T07:49:48.909Z,1012.11
2023-02-18T07:50:48.879Z,1012.17
2023-02-18T07:51:48.834Z,1012.19
2023-02-18T07:52:48.803Z,1012.13
2023-02-18T07:53:48.781Z,1012.14
2023-02-18T07:54:48.725Z,1012.14
2023-02-18T07:55:48.703Z,1012.19
2023-02-18T07:56:48.650Z,1012.19
2023-02-18T07:57:48.619Z,1012.30
2023-02-18T07:58:48.587Z,1012.44
2023-02-18T07:59:48.546Z,1012.39
2023-02-18T08:00:48.506Z,1012.43
2023-02-18T08:01:48.522Z,1012.47
2023-02-18T08:02:48.445Z,1012.41
2023-02-18T08:03:48.421Z,1012.44
2023-02-18T08:04:48.380Z,1012.50
2023-02-18T08:05:48.347Z,1012.43
2023-02-18T08:06:48.300Z,1012.45
2023-02-18T08:07:48.266Z,1012.50
2023-02-18T08:08:48.223Z,1012.52
2023-02-18T08:09:48.187Z,1012.53
2023-02-18T08:10:48.152Z,1012.64
2023-02-18T08:11:48.125Z,1012.67
2023-02-18T08:12:48.086Z,1012.64
2023-02-18T08:13:48.054Z,1012.71
2023-02-18T08:14:48.012Z,1012.65
2023-02-18T08:15:47.977Z,1012.69
2023-02-18T08:16:47.975Z,1012.79
2023-02-18T08:17:47.905Z,1012.81
2023-02-18T08:18:47.897Z,1012.77
2023-02-18T08:19:47.832Z,1012.82
2023-02-18T08:20:47.815Z,1012.80
2023-02-18T08:21:47.767Z,1012.71
2023-02-18T08:22:47.724Z,1012.75
2023-02-18T08:23:47.692Z,1012.76
2023-02-18T08:24:47.686Z,1012.85
2023-02-18T08:25:49.999Z,1012.67
2023-02-18T08:26:59.733Z,1012.81
2023-02-18T08:27:47.550Z,1012.69
2023-02-18T08:28:47.506Z,1012.76
2023-02-18T08:29:47.481Z,1012.85
2023-02-18T08:30:47.492Z,1012.90
2023-02-18T08:31:47.504Z,1012.92
2023-02-18T08:32:47.366Z,1012.89
2023-02-18T08:33:47.356Z,1012.96
2023-02-18T08:34:47.301Z,1012.93
2023-02-18T08:35:47.337Z,1012.82
2023-02-18T08:36:47.226Z,1012.88
2023-02-18T08:37:53.701Z,1012.82
2023-02-18T08:38:47.157Z,1012.86
2023-02-18T08:39:47.122Z,1012.86
2023-02-18T08:40:47.083Z,1012.87
2023-02-18T08:41:47.060Z,1012.89
2023-02-18T08:42:47.009Z,1012.90
2023-02-18T08:43:46.982Z,1012.92
2023-02-18T08:44:46.938Z,1012.83
2023-02-18T08:45:46.978Z,1012.88
2023-02-18T08:46:46.938Z,1012.87
2023-02-18T08:48:18.416Z,1012.87
2023-02-18T08:48:46.793Z,1012.93
2023-02-18T08:49:46.773Z,1012.96
2023-02-18T08:50:46.760Z,1012.87
2023-02-18T08:51:46.715Z,1012.83
2023-02-18T08:52:46.647Z,1012.79
2023-02-18T08:53:46.642Z,1012.86
2023-02-18T08:54:46.585Z,1012.82
2023-02-18T08:55:46.547Z,1012.75
2023-02-18T08:56:46.509Z,1012.75
2023-02-18T08:57:46.481Z,1012.80
2023-02-18T08:58:46.442Z,1012.70
2023-02-18T08:59:46.399Z,1012.70
2023-02-18T09:00:46.372Z,1012.71
2023-02-18T09:01:46.353Z,1012.59
2023-02-18T09:02:46.286Z,1012.79
2023-02-18T09:03:46.258Z,1012.57
2023-02-18T09:04:46.282Z,1012.68
2023-02-18T09:05:46.185Z,1012.50
2023-02-18T09:06:46.151Z,1012.59
2023-02-18T09:07:46.155Z,1012.62
2023-02-18T09:08:46.076Z,1012.54
2023-02-18T09:09:46.041Z,1012.54
2023-02-18T09:10:46.340Z,1012.58
2023-02-18T09:11:45.967Z,1012.55
2023-02-18T09:12:45.930Z,1012.56
2023-02-18T09:13:45.898Z,1012.56
2023-02-18T09:14:45.870Z,1012.61
2023-02-18T09:15:45.844Z,1012.56
2023-02-18T09:16:45.788Z,1012.59
2023-02-18T09:17:45.763Z,1012.55
2023-02-18T09:18:45.717Z,1012.56
2023-02-18T09:19:45.677Z,1012.54
2023-02-18T09:20:45.641Z,1012.57
2023-02-18T09:21:45.606Z,1012.56
2023-02-18T09:22:45.580Z,1012.60
2023-02-18T09:23:45.537Z,1012.54
2023-02-18T09:24:45.498Z,1012.63
2023-02-18T09:25:45.464Z,1012.56
2023-02-18T09:26:45.424Z,1012.52
2023-02-18T09:27:45.389Z,1012.54
2023-02-18T09:28:45.357Z,1012.46
2023-02-18T09:29:45.367Z,1012.53
2023-02-18T09:30:45.289Z,1012.49
2023-02-18T09:31:45.341Z,1012.42
2023-02-18T09:32:45.230Z,1012.49
2023-02-18T09:33:45.992Z,1012.51
2023-02-18T09:34:45.138Z,1012.54
2023-02-18T09:35:45.109Z,1012.56
2023-02-18T09:36:45.068Z,1012.53
2023-02-18T09:37:45.048Z,1012.52
2023-02-18T09:38:44.997Z,1012.41
2023-02-18T09:39:44.958Z,1012.44
2023-02-18T09:40:44.924Z,1012.39
2023-02-18T09:41:44.893Z,1012.38
2023-02-18T09:42:44.848Z,1012.43
2023-02-18T09:43:44.815Z,1012.38
2023-02-18T09:44:44.787Z,1012.41
2023-02-18T09:45:44.743Z,1012.36
2023-02-18T09:46:44.706Z,1012.38
2023-02-18T09:47:44.677Z,1012.45
2023-02-18T09:48:44.669Z,1012.25
2023-02-18T09:49:44.599Z,1012.32
2023-02-18T09:50:44.564Z,1012.26
2023-02-18T09:51:44.523Z,1012.33
2023-02-18T09:52:44.493Z,1012.25
2023-02-18T09:53:44.454Z,1012.29
2023-02-18T09:54:44.424Z,1012.23
2023-02-18T09:55:44.396Z,1012.22
2023-02-18T09:56:44.345Z,1012.24
2023-02-18T09:57:44.711Z,1012.22
2023-02-18T09:58:44.303Z,1012.35
2023-02-18T09:59:44.242Z,1012.17
2023-02-18T10:00:44.208Z,1012.31
2023-02-18T10:01:44.206Z,1012.23
2023-02-18T10:02:44.134Z,1012.29
2023-02-18T10:03:44.109Z,1012.19
2023-02-18T10:04:44.081Z,1012.24
2023-02-18T10:05:44.038Z,1012.38
2023-02-18T10:06:43.997Z,1012.32
2023-02-18T10:07:43.959Z,1012.29
2023-02-18T10:08:43.932Z,1012.22
2023-02-18T10:09:43.898Z,1012.25
2023-02-18T10:10:43.856Z,1012.19
2023-02-18T10:11:43.812Z,1012.19
2023-02-18T10:12:43.784Z,1012.13
2023-02-18T10:13:43.762Z,1012.19
2023-02-18T10:14:43.704Z,1012.15
2023-02-18T10:15:43.723Z,1012.10
2023-02-18T10:16:43.685Z,1012.12
2023-02-18T10:17:43.612Z,1012.12
2023-02-18T10:18:43.606Z,1012.13
2023-02-18T10:19:43.556Z,1012.19
2023-02-18T10:20:43.496Z,1012.35
2023-02-18T10:21:43.461Z,1012.08
2023-02-18T10:22:43.421Z,1012.12
2023-02-18T10:23:43.385Z,1012.22
2023-02-18T10:24:43.354Z,1012.22
2023-02-18T10:25:43.320Z,1012.04
2023-02-18T10:26:43.280Z,1012.14
2023-02-18T10:27:43.258Z,1012.07
2023-02-18T10:28:43.226Z,1012.10
2023-02-18T10:29:43.267Z,1012.03
2023-02-18T10:30:43.140Z,1012.07
2023-02-18T10:31:43.160Z,1012.14
2023-02-18T10:32:43.116Z,1012.05
2023-02-18T10:33:43.027Z,1012.22
2023-02-18T10:34:43.020Z,1012.12
2023-02-18T10:35:42.956Z,1012.07
2023-02-18T10:36:42.923Z,1012.16
2023-02-18T10:37:42.891Z,1012.35
2023-02-18T10:38:42.854Z,1012.31
2023-02-18T10:39:42.815Z,1012.26
2023-02-18T10:40:42.785Z,1012.27
2023-02-18T10:41:42.753Z,1012.19
2023-02-18T10:42:42.716Z,1012.21
2023-02-18T10:43:42.673Z,1012.25
2023-02-18T10:44:42.644Z,1012.31
2023-02-18T10:45:42.609Z,1012.27
2023-02-18T10:46:42.634Z,1012.19
2023-02-18T10:47:42.533Z,1012.45
2023-02-18T10:48:42.499Z,1012.13
2023-02-18T10:49:42.458Z,1012.28
2023-02-18T10:50:42.446Z,1012.28
2023-02-18T10:51:42.380Z,1012.41
2023-02-18T10:52:42.356Z,1012.34
2023-02-18T10:53:42.325Z,1012.29
2023-02-18T10:54:42.283Z,1012.29
2023-02-18T10:55:42.243Z,1012.22
2023-02-18T10:56:42.212Z,1012.27
2023-02-18T10:57:42.222Z,1012.24
2023-02-18T10:58:42.139Z,1012.23
2023-02-18T10:59:42.094Z,1012.23
2023-02-18T11:00:42.063Z,1012.25
2023-02-18T11:01:42.148Z,1012.17
2023-02-18T11:02:42.019Z,1012.29
2023-02-18T11:03:41.962Z,1012.33
2023-02-18T11:04:41.954Z,1012.30
2023-02-18T11:05:41.891Z,1012.32
2023-02-18T11:06:41.844Z,1012.27
2023-02-18T11:07:41.807Z,1012.28
2023-02-18T11:08:41.772Z,1012.27
2023-02-18T11:09:41.737Z,1012.37
2023-02-18T11:10:41.708Z,1012.54
2023-02-18T11:11:41.804Z,1012.52
2023-02-18T11:12:41.626Z,1012.56
2023-02-18T11:13:41.598Z,1012.49
2023-02-18T11:14:41.563Z,1012.46
2023-02-18T11:15:41.520Z,1012.45
2023-02-18T11:16:41.486Z,1012.41
2023-02-18T11:17:41.449Z,1012.45
2023-02-18T11:18:41.412Z,1012.42
2023-02-18T11:19:41.371Z,1012.43
2023-02-18T11:20:41.368Z,1012.37
2023-02-18T11:21:41.299Z,1012.31
2023-02-18T11:22:41.282Z,1012.33
2023-02-18T11:23:41.228Z,1012.34
2023-02-18T11:24:41.192Z,1012.34
2023-02-18T11:25:41.154Z,1012.32
2023-02-18T11:26:41.119Z,1012.27
2023-02-18T11:27:41.101Z,1012.34
2023-02-18T11:28:41.047Z,1012.33
2023-02-18T11:29:41.012Z,1012.37
2023-02-18T11:30:41.012Z,1012.37
2023-02-18T11:31:41.044Z,1012.38
2023-02-18T11:32:40.900Z,1012.56
2023-02-18T11:33:40.894Z,1012.37
2023-02-18T11:34:40.836Z,1012.45
2023-02-18T11:35:40.808Z,1012.43
2023-02-18T11:36:40.757Z,1012.38
2023-02-18T11:37:40.727Z,1012.45
2023-02-18T11:38:40.691Z,1012.42
2023-02-18T11:39:40.654Z,1012.39
2023-02-18T11:40:40.619Z,1012.35
2023-02-18T11:41:40.623Z,1012.39
2023-02-18T11:42:40.544Z,1012.40
2023-02-18T11:43:40.507Z,1012.42
2023-02-18T11:44:40.484Z,1012.41
2023-02-18T11:45:40.460Z,1012.38
2023-02-18T11:46:40.516Z,1012.46
2023-02-18T11:47:40.381Z,1012.38
2023-02-18T11:48:40.335Z,1012.44
2023-02-18T11:49:40.312Z,1012.41
2023-02-18T11:50:40.256Z,1012.47
2023-02-18T11:51:40.217Z,1012.43
2023-02-18T11:52:40.204Z,1012.43
2023-02-18T11:53:40.145Z,1012.48
2023-02-18T11:54:40.113Z,1012.45
2023-02-18T11:55:40.085Z,1012.40
2023-02-18T11:56:40.036Z,1012.41
2023-02-18T11:57:40.012Z,1012.45
2023-02-18T11:58:39.984Z,1012.46
2023-02-18T11:59:40.054Z,1012.37
2023-02-18T12:00:40.065Z,1012.39
2023-02-18T12:01:40.218Z,1012.42
2023-02-18T12:02:39.840Z,1012.40
2023-02-18T12:03:39.793Z,1012.36
2023-02-18T12:04:39.755Z,1012.40